Time;durP1;ratioP1;P1;durP2;ratioP2;P2;SDS_P1;SDS_P2;PMS_P1;PMS_P2;Temp;Humidity;BMP_temperature;BMP_pressure;BME280_temperature;BME280_humidity;BME280_pressure;Samples;Min_cycle;Max_cycle;Signal;HPM_P1;HPM_P2
2023/12/30 00:01:07;;;;;;;3.75;2.47;;;6.70;99.90;;;;;;5033159;28;20057;-79
2023/12/30 00:03:33;;;;;;;2.90;2.55;;;6.70;99.90;;;;;;5032468;28;20076;-78
2023/12/30 00:05:59;;;;;;;3.38;2.20;;;6.70;99.90;;;;;;5033984;28;20041;-78
2023/12/30 00:08:25;;;;;;;3.80;2.30;;;6.70;99.90;;;;;;5032737;28;20049;-78
2023/12/30 00:10:51;;;;;;;6.03;3.97;;;6.70;99.90;;;;;;5032138;28;20049;-78
2023/12/30 00:13:16;;;;;;;3.35;2.38;;;6.70;99.90;;;;;;5032429;28;20041;-77
2023/12/30 00:15:42;;;;;;;3.08;2.10;;;6.60;99.90;;;;;;5032361;28;20120;-78
2023/12/30 00:18:08;;;;;;;4.25;2.35;;;6.60;99.90;;;;;;5033808;28;20486;-78
2023/12/30 00:20:33;;;;;;;2.80;2.35;;;6.70;99.90;;;;;;5032446;28;20103;-78
2023/12/30 00:22:59;;;;;;;3.00;2.40;;;6.80;99.90;;;;;;5033297;28;20103;-78
2023/12/30 00:25:25;;;;;;;4.50;2.30;;;6.70;99.90;;;;;;5032152;28;20100;-78
2023/12/30 00:27:51;;;;;;;2.88;2.13;;;6.70;99.90;;;;;;5033163;28;20045;-78
2023/12/30 00:30:17;;;;;;;5.13;2.85;;;6.70;99.90;;;;;;5031828;28;20049;-78
2023/12/30 00:32:43;;;;;;;6.18;2.60;;;6.60;99.90;;;;;;5032929;28;20041;-78
2023/12/30 00:35:09;;;;;;;5.38;2.58;;;6.60;99.90;;;;;;5031870;28;20552;-78
2023/12/30 00:37:35;;;;;;;2.88;2.10;;;6.60;99.90;;;;;;5032194;28;20049;-79
2023/12/30 00:40:01;;;;;;;5.00;2.75;;;6.60;99.90;;;;;;5032128;28;20046;-78
2023/12/30 00:42:27;;;;;;;2.75;2.20;;;6.60;99.90;;;;;;5034224;28;20080;-78
2023/12/30 00:44:52;;;;;;;6.72;2.42;;;6.50;99.90;;;;;;5037282;28;20073;-79
2023/12/30 00:47:18;;;;;;;3.63;2.42;;;6.50;99.90;;;;;;5020238;28;20057;-78
2023/12/30 00:49:44;;;;;;;3.03;2.45;;;6.50;99.90;;;;;;5002991;28;20051;-79
2023/12/30 00:52:10;;;;;;;3.45;2.58;;;6.40;99.90;;;;;;5036814;28;20099;-77
2023/12/30 00:54:36;;;;;;;4.30;2.60;;;6.40;99.90;;;;;;5036975;28;20103;-78
2023/12/30 00:57:02;;;;;;;4.88;2.75;;;6.40;99.90;;;;;;5036001;28;20039;-78
2023/12/30 00:59:28;;;;;;;6.32;2.75;;;6.40;99.90;;;;;;5037248;28;20085;-79
2023/12/30 01:01:53;;;;;;;5.47;2.50;;;6.40;99.90;;;;;;5035895;28;20086;-79
2023/12/30 01:04:19;;;;;;;3.92;2.50;;;6.40;99.90;;;;;;5037163;28;20050;-78
2023/12/30 01:06:45;;;;;;;5.07;2.70;;;6.20;99.90;;;;;;5035424;28;20140;-78
2023/12/30 01:09:10;;;;;;;5.60;3.22;;;6.30;99.90;;;;;;5036324;28;20052;-78
2023/12/30 01:11:36;;;;;;;6.07;2.70;;;6.30;99.90;;;;;;5035480;28;20088;-78
2023/12/30 01:14:02;;;;;;;4.38;2.70;;;6.30;99.90;;;;;;5036742;28;20179;-78
2023/12/30 01:16:28;;;;;;;4.90;2.60;;;6.30;99.90;;;;;;5035125;28;20125;-77
2023/12/30 01:18:53;;;;;;;3.58;2.40;;;6.30;99.90;;;;;;5036390;28;20115;-78
2023/12/30 01:21:19;;;;;;;6.70;2.78;;;6.30;99.90;;;;;;5036274;28;20520;-78
2023/12/30 01:23:45;;;;;;;4.53;2.70;;;6.30;99.90;;;;;;5018984;28;20049;-79
2023/12/30 01:26:10;;;;;;;2.83;2.58;;;6.30;99.90;;;;;;5035872;28;20052;-78
2023/12/30 01:28:36;;;;;;;4.30;2.63;;;6.30;99.90;;;;;;5035487;28;20191;-78
2023/12/30 01:31:03;;;;;;;2.88;2.55;;;6.20;99.90;;;;;;5036160;28;20478;-78
2023/12/30 01:33:28;;;;;;;5.22;2.60;;;6.20;99.90;;;;;;5035189;28;20064;-78
2023/12/30 01:35:55;;;;;;;4.88;2.47;;;6.20;99.90;;;;;;5036601;28;20049;-78
2023/12/30 01:38:21;;;;;;;4.93;2.42;;;6.10;99.90;;;;;;5019355;28;20060;-78
2023/12/30 01:40:46;;;;;;;5.00;2.88;;;6.20;99.90;;;;;;5035216;28;20049;-78
2023/12/30 01:43:29;;;;;;;3.75;2.50;;;6.20;99.90;;;;;;5035801;28;20037;-78
2023/12/30 01:46:05;;;;;;;4.65;2.72;;;6.20;99.90;;;;;;5035413;28;20058;-78
2023/12/30 01:48:31;;;;;;;2.85;2.60;;;6.20;99.90;;;;;;5035746;28;20049;-79
2023/12/30 01:50:59;;;;;;;4.22;2.63;;;6.10;99.90;;;;;;5034585;28;20089;-77
2023/12/30 01:53:28;;;;;;;5.32;2.47;;;6.10;99.90;;;;;;5017131;28;20154;-78
2023/12/30 01:55:56;;;;;;;2.70;2.30;;;6.30;99.90;;;;;;5034502;28;20045;-78
2023/12/30 01:58:22;;;;;;;4.78;3.10;;;6.10;99.90;;;;;;5036231;28;20041;-77
2023/12/30 02:00:51;;;;;;;3.13;2.35;;;6.00;99.90;;;;;;5034408;28;20056;-79
2023/12/30 02:03:18;;;;;;;3.30;2.58;;;6.00;99.90;;;;;;5035538;28;20545;-78
2023/12/30 02:05:47;;;;;;;2.90;2.65;;;6.00;99.90;;;;;;5018147;28;20062;-77
2023/12/30 02:08:14;;;;;;;3.95;2.60;;;6.00;99.90;;;;;;5034182;28;20047;-78
2023/12/30 02:10:40;;;;;;;5.18;2.90;;;6.00;99.90;;;;;;5035144;28;20051;-79
2023/12/30 02:13:05;;;;;;;5.05;2.40;;;6.00;99.90;;;;;;5035824;28;20054;-78
2023/12/30 02:15:31;;;;;;;4.53;2.80;;;6.00;99.90;;;;;;5034532;28;20048;-78
2023/12/30 02:17:57;;;;;;;3.90;2.85;;;6.00;99.90;;;;;;5034203;28;20038;-79
2023/12/30 02:20:23;;;;;;;3.25;2.50;;;5.90;99.90;;;;;;5034010;28;20410;-78
2023/12/30 02:22:49;;;;;;;4.95;2.53;;;6.00;99.90;;;;;;5034507;28;20072;-79
2023/12/30 02:25:15;;;;;;;3.35;2.50;;;6.00;99.90;;;;;;5035201;28;20080;-79
2023/12/30 02:27:43;;;;;;;3.45;2.85;;;6.00;99.90;;;;;;5033889;28;20041;-78
2023/12/30 02:30:09;;;;;;;3.58;2.97;;;5.90;99.90;;;;;;5035039;28;20045;-79
2023/12/30 02:32:35;;;;;;;4.75;2.70;;;5.90;99.90;;;;;;5034070;28;20084;-78
2023/12/30 02:35:00;;;;;;;3.75;3.35;;;5.90;99.90;;;;;;5017493;28;20042;-79
2023/12/30 02:37:26;;;;;;;5.07;2.90;;;6.00;99.90;;;;;;5034248;28;20354;-78
2023/12/30 02:39:52;;;;;;;4.93;2.80;;;5.90;99.90;;;;;;5035480;28;20049;-78
2023/12/30 02:42:17;;;;;;;9.25;2.60;;;5.90;99.90;;;;;;5033653;28;20041;-78
2023/12/30 02:44:43;;;;;;;2.63;2.40;;;5.90;99.90;;;;;;5033575;28;20048;-78
2023/12/30 02:47:09;;;;;;;2.95;2.40;;;5.90;99.90;;;;;;5034568;28;20111;-78
2023/12/30 02:49:34;;;;;;;3.47;2.67;;;5.80;99.90;;;;;;5033701;28;20363;-79
2023/12/30 02:52:00;;;;;;;4.35;2.45;;;5.80;99.90;;;;;;5034603;28;20099;-79
2023/12/30 02:54:29;;;;;;;5.80;3.03;;;6.00;99.90;;;;;;5034574;28;20045;-78
2023/12/30 02:56:56;;;;;;;3.42;3.03;;;5.90;99.90;;;;;;5034157;28;20042;-78
2023/12/30 02:59:21;;;;;;;2.97;2.25;;;5.90;99.90;;;;;;5034436;28;20056;-78
2023/12/30 03:01:47;;;;;;;2.83;2.53;;;6.00;99.90;;;;;;5033574;28;20045;-78
2023/12/30 03:04:13;;;;;;;4.60;2.20;;;5.90;99.90;;;;;;5034440;28;20049;-79
2023/12/30 03:06:38;;;;;;;3.53;2.50;;;5.80;99.90;;;;;;5034217;28;20037;-77
2023/12/30 03:09:04;;;;;;;5.15;3.00;;;5.80;99.90;;;;;;5034034;28;20049;-78
2023/12/30 03:11:30;;;;;;;2.55;2.33;;;5.80;99.90;;;;;;5034114;28;20049;-77
2023/12/30 03:13:56;;;;;;;8.55;3.03;;;5.80;99.90;;;;;;5033876;28;20056;-79
2023/12/30 03:16:21;;;;;;;4.40;2.60;;;5.80;99.90;;;;;;5034025;28;20046;-78
2023/12/30 03:18:47;;;;;;;2.65;2.45;;;5.80;99.90;;;;;;5033999;28;20053;-78
2023/12/30 03:21:14;;;;;;;5.32;2.92;;;5.80;99.90;;;;;;5034817;28;20041;-78
2023/12/30 03:23:40;;;;;;;4.10;2.17;;;5.80;99.90;;;;;;5034115;28;20393;-79
2023/12/30 03:26:08;;;;;;;3.20;2.90;;;5.80;99.90;;;;;;5033043;28;20054;-78
2023/12/30 03:28:34;;;;;;;6.80;2.65;;;5.70;99.90;;;;;;5033052;28;20050;-78
2023/12/30 03:30:59;;;;;;;4.07;2.90;;;5.80;99.90;;;;;;5032995;28;20120;-79
2023/12/30 03:33:25;;;;;;;2.88;2.55;;;5.70;99.90;;;;;;5033762;28;20052;-79
2023/12/30 03:35:51;;;;;;;5.45;2.58;;;5.90;99.90;;;;;;5032687;28;20500;-78
2023/12/30 03:38:17;;;;;;;6.20;3.10;;;6.10;99.90;;;;;;5033600;28;20056;-79
2023/12/30 03:40:43;;;;;;;6.00;2.53;;;5.60;99.90;;;;;;5016549;28;20172;-78
2023/12/30 03:43:08;;;;;;;4.53;2.60;;;5.90;99.90;;;;;;5033131;28;20042;-78
2023/12/30 03:45:34;;;;;;;5.20;2.70;;;6.00;99.90;;;;;;5000188;28;20087;-79
2023/12/30 03:48:00;;;;;;;4.35;2.83;;;5.60;99.90;;;;;;5032666;28;20088;-78
2023/12/30 03:50:26;;;;;;;5.35;3.33;;;5.60;99.90;;;;;;5033062;28;20053;-78
2023/12/30 03:52:52;;;;;;;4.18;3.00;;;5.60;99.90;;;;;;5032717;28;20041;-78
2023/12/30 03:55:18;;;;;;;4.65;2.65;;;5.60;99.90;;;;;;5033460;28;20085;-77
2023/12/30 03:57:43;;;;;;;5.43;2.78;;;5.60;99.90;;;;;;5033548;28;20151;-77
2023/12/30 04:00:10;;;;;;;6.72;2.65;;;5.80;99.90;;;;;;5033533;28;20050;-77
2023/12/30 04:02:36;;;;;;;6.07;2.55;;;5.40;99.90;;;;;;5032867;28;20107;-78
2023/12/30 04:05:02;;;;;;;6.38;2.88;;;5.40;99.90;;;;;;5033423;28;20117;-77
2023/12/30 04:07:28;;;;;;;4.32;3.10;;;5.30;99.90;;;;;;5016272;28;20398;-77
2023/12/30 04:09:53;;;;;;;4.97;2.65;;;5.30;99.90;;;;;;5033397;28;20041;-77
2023/12/30 04:12:20;;;;;;;3.97;2.95;;;5.80;99.90;;;;;;5032254;28;20136;-78
2023/12/30 04:14:46;;;;;;;5.75;3.00;;;5.20;99.90;;;;;;5033741;28;20049;-77
2023/12/30 04:17:12;;;;;;;7.63;3.00;;;5.20;99.90;;;;;;5034897;28;20132;-77
2023/12/30 04:19:38;;;;;;;6.80;3.20;;;5.10;99.90;;;;;;5036765;28;20124;-77
2023/12/30 04:22:04;;;;;;;4.28;3.03;;;5.00;99.90;;;;;;5036576;28;20053;-77
2023/12/30 04:24:30;;;;;;;4.85;2.60;;;5.30;99.90;;;;;;5036626;28;20386;-77
2023/12/30 04:26:56;;;;;;;4.60;3.70;;;5.20;99.90;;;;;;5036061;28;20053;-78
2023/12/30 04:29:22;;;;;;;4.53;2.88;;;4.90;99.90;;;;;;5019787;28;20045;-78
2023/12/30 04:31:48;;;;;;;4.32;2.95;;;4.90;99.90;;;;;;5036347;28;20445;-77
2023/12/30 04:34:14;;;;;;;3.72;2.90;;;4.90;99.90;;;;;;5037047;28;20193;-77
2023/12/30 04:36:39;;;;;;;3.17;2.88;;;4.80;99.90;;;;;;5037172;28;20168;-79
2023/12/30 04:39:05;;;;;;;3.15;2.88;;;4.80;99.90;;;;;;5037175;28;20460;-77
2023/12/30 04:41:31;;;;;;;8.05;3.20;;;4.80;99.90;;;;;;5036893;28;20049;-77
2023/12/30 04:43:57;;;;;;;4.68;2.88;;;4.70;99.90;;;;;;5037062;28;20041;-78
2023/12/30 04:46:23;;;;;;;4.43;3.15;;;4.70;99.90;;;;;;5037451;28;20132;-78
2023/12/30 04:48:52;;;;;;;9.15;3.50;;;4.80;99.90;;;;;;5036602;28;20052;-78
2023/12/30 04:51:18;;;;;;;3.72;3.13;;;4.70;99.90;;;;;;5036912;28;20049;-76
2023/12/30 04:53:44;;;;;;;6.05;3.22;;;4.80;99.90;;;;;;5037662;28;20124;-77
2023/12/30 04:56:17;;;;;;;7.53;2.70;;;4.80;99.90;;;;;;5037009;28;20446;-77
2023/12/30 04:58:43;;;;;;;5.28;3.58;;;4.70;99.90;;;;;;5035655;28;20088;-78
2023/12/30 05:01:08;;;;;;;5.72;2.78;;;4.70;99.90;;;;;;5035647;28;20077;-78
2023/12/30 05:03:35;;;;;;;5.18;2.88;;;4.70;99.90;;;;;;5037491;28;20452;-78
2023/12/30 05:06:02;;;;;;;4.90;2.70;;;4.70;99.90;;;;;;5036643;28;20087;-76
2023/12/30 05:08:28;;;;;;;4.93;2.85;;;4.70;99.90;;;;;;5037382;28;20091;-77
2023/12/30 05:10:54;;;;;;;4.82;2.85;;;4.90;99.90;;;;;;5036577;28;20045;-76
2023/12/30 05:13:20;;;;;;;4.50;2.80;;;4.70;99.90;;;;;;5036442;28;20363;-77
2023/12/30 05:15:46;;;;;;;5.10;3.00;;;4.60;99.90;;;;;;5036328;28;20102;-77
2023/12/30 05:18:12;;;;;;;4.32;2.50;;;4.80;99.90;;;;;;5035537;28;20080;-77
2023/12/30 05:20:37;;;;;;;6.57;3.28;;;5.00;99.90;;;;;;5036288;28;20048;-76
2023/12/30 05:23:03;;;;;;;5.32;2.60;;;4.60;99.90;;;;;;5037118;28;20115;-76
2023/12/30 05:25:29;;;;;;;4.50;2.80;;;4.50;99.90;;;;;;5036241;28;20041;-77
2023/12/30 05:27:55;;;;;;;6.85;3.13;;;4.50;99.90;;;;;;5035962;28;20052;-76
2023/12/30 05:30:21;;;;;;;3.67;3.33;;;5.10;99.90;;;;;;5036366;28;20176;-77
2023/12/30 05:32:47;;;;;;;8.00;2.92;;;4.50;99.90;;;;;;5036949;28;20415;-76
2023/12/30 05:35:12;;;;;;;11.25;2.85;;;4.50;99.90;;;;;;5035984;28;20068;-77
2023/12/30 05:37:38;;;;;;;5.30;2.70;;;4.50;99.90;;;;;;5036099;28;20405;-76
2023/12/30 05:40:08;;;;;;;7.85;2.45;;;4.50;99.90;;;;;;5036032;28;20394;-76
2023/12/30 05:42:34;;;;;;;5.00;2.95;;;4.50;99.90;;;;;;5036001;28;20128;-78
2023/12/30 05:45:00;;;;;;;7.75;3.17;;;4.50;99.90;;;;;;5035365;28;20072;-77
2023/12/30 05:47:25;;;;;;;8.73;2.75;;;4.50;99.90;;;;;;5035187;28;20061;-77
2023/12/30 05:49:51;;;;;;;5.55;3.00;;;4.50;99.90;;;;;;5035292;28;20080;-76
2023/12/30 05:52:17;;;;;;;6.80;3.35;;;4.50;99.90;;;;;;5035696;28;20095;-77
2023/12/30 05:54:45;;;;;;;6.13;3.42;;;4.60;99.90;;;;;;5035016;28;20052;-77
2023/12/30 05:57:10;;;;;;;7.05;2.63;;;4.60;99.90;;;;;;5034454;28;20045;-76
2023/12/30 05:59:36;;;;;;;4.45;3.10;;;4.60;99.90;;;;;;5035557;28;20049;-77
2023/12/30 06:02:02;;;;;;;8.10;3.30;;;4.50;99.90;;;;;;5034377;28;20045;-78
2023/12/30 06:04:29;;;;;;;7.50;2.80;;;4.60;99.90;;;;;;5034413;28;20398;-78
2023/12/30 06:06:55;;;;;;;5.47;2.80;;;4.80;99.90;;;;;;5035223;28;20049;-76
2023/12/30 06:09:21;;;;;;;5.15;2.92;;;4.60;99.90;;;;;;5035944;28;20406;-77
2023/12/30 06:11:47;;;;;;;3.35;2.92;;;4.50;99.90;;;;;;5034443;28;20069;-77
2023/12/30 06:14:13;;;;;;;4.45;2.75;;;4.50;99.90;;;;;;5034746;28;20049;-77
2023/12/30 06:16:39;;;;;;;5.60;2.80;;;4.50;99.90;;;;;;5035392;28;20041;-76
2023/12/30 06:19:05;;;;;;;5.47;3.38;;;4.50;99.90;;;;;;5035249;28;20041;-76
2023/12/30 06:21:30;;;;;;;3.70;3.00;;;4.50;99.90;;;;;;5034248;28;20045;-77
2023/12/30 06:23:56;;;;;;;5.97;3.00;;;4.50;99.90;;;;;;5035372;28;20042;-76
2023/12/30 06:26:22;;;;;;;8.45;3.22;;;4.50;99.90;;;;;;5035123;28;20080;-77
2023/12/30 06:28:48;;;;;;;5.00;3.28;;;4.40;99.90;;;;;;5035723;28;20140;-76
2023/12/30 06:31:13;;;;;;;6.45;2.88;;;4.40;99.90;;;;;;5035135;28;20179;-76
2023/12/30 06:33:39;;;;;;;5.07;3.35;;;4.40;99.90;;;;;;5034186;28;20054;-77
2023/12/30 06:36:06;;;;;;;5.32;2.90;;;4.40;99.90;;;;;;5034922;28;20375;-77
2023/12/30 06:38:32;;;;;;;7.95;3.80;;;4.50;99.90;;;;;;5035501;28;20111;-77
2023/12/30 06:40:58;;;;;;;6.15;3.05;;;4.50;99.90;;;;;;5033948;28;20057;-77
2023/12/30 06:43:24;;;;;;;4.72;2.80;;;4.60;99.90;;;;;;5034807;28;20124;-77
2023/12/30 06:45:49;;;;;;;6.85;3.70;;;4.90;99.90;;;;;;5035186;28;20377;-78
2023/12/30 06:48:18;;;;;;;8.60;2.88;;;4.50;99.90;;;;;;5034038;28;20069;-77
2023/12/30 06:50:45;;;;;;;5.15;2.97;;;4.60;99.90;;;;;;5034389;28;20056;-77
2023/12/30 06:53:11;;;;;;;6.70;2.60;;;4.60;99.90;;;;;;5034357;28;20049;-77
2023/12/30 06:55:37;;;;;;;3.85;3.20;;;4.70;99.90;;;;;;5034550;28;20051;-77
2023/12/30 06:58:03;;;;;;;4.07;3.10;;;4.70;99.90;;;;;;5033636;28;20049;-77
2023/12/30 07:00:30;;;;;;;6.25;3.22;;;4.90;99.90;;;;;;5034199;28;20517;-76
2023/12/30 07:02:56;;;;;;;6.75;3.00;;;4.70;99.90;;;;;;5034229;28;20496;-77
2023/12/30 07:05:22;;;;;;;4.45;2.88;;;4.70;99.90;;;;;;5033064;28;20088;-78
2023/12/30 07:07:47;;;;;;;6.00;3.80;;;4.70;99.90;;;;;;5033292;28;20132;-77
2023/12/30 07:10:13;;;;;;;5.07;2.47;;;4.70;99.90;;;;;;5034292;28;20045;-77
2023/12/30 07:12:39;;;;;;;4.78;2.92;;;4.70;99.90;;;;;;5034314;28;20397;-77
2023/12/30 07:15:05;;;;;;;4.18;2.72;;;4.70;99.90;;;;;;5034069;28;20060;-77
2023/12/30 07:17:30;;;;;;;3.78;2.50;;;4.70;99.90;;;;;;5034694;28;20367;-77
2023/12/30 07:19:57;;;;;;;5.93;3.17;;;4.80;99.90;;;;;;5033529;28;20172;-77
2023/12/30 07:22:23;;;;;;;4.38;2.95;;;4.80;99.90;;;;;;5033063;28;20050;-78
2023/12/30 07:24:49;;;;;;;9.93;4.20;;;4.70;99.90;;;;;;5032618;28;20052;-77
2023/12/30 07:27:14;;;;;;;5.72;2.90;;;4.70;99.90;;;;;;5033904;28;20078;-77
2023/12/30 07:29:40;;;;;;;7.10;2.78;;;4.70;99.90;;;;;;5033653;28;20045;-78
2023/12/30 07:32:06;;;;;;;3.10;2.90;;;4.70;99.90;;;;;;5033857;28;20072;-77
2023/12/30 07:34:32;;;;;;;6.65;2.70;;;4.70;99.90;;;;;;5032891;28;20050;-76
2023/12/30 07:37:01;;;;;;;5.07;2.72;;;4.70;99.90;;;;;;5034289;28;20045;-76
2023/12/30 07:39:27;;;;;;;7.65;3.65;;;4.60;99.90;;;;;;5034090;28;20121;-77
2023/12/30 07:41:56;;;;;;;6.05;4.15;;;4.60;99.90;;;;;;5034821;28;20184;-90
2023/12/30 07:44:25;;;;;;;7.32;3.55;;;4.60;99.90;;;;;;5018902;28;20195;-89
2023/12/30 07:46:53;;;;;;;7.30;3.20;;;4.60;99.90;;;;;;5018537;28;20049;-87
2023/12/30 07:49:20;;;;;;;6.90;3.83;;;4.60;99.90;;;;;;5035168;28;20140;-88
2023/12/30 07:51:53;;;;;;;7.55;3.75;;;4.60;99.90;;;;;;5003325;28;20054;-90
2023/12/30 07:54:34;;;;;;;4.38;3.40;;;4.60;99.90;;;;;;5019664;28;20056;-91
2023/12/30 07:57:03;;;;;;;3.92;3.22;;;4.50;99.90;;;;;;5033994;28;20132;-89
2023/12/30 07:59:31;;;;;;;3.67;2.92;;;;;;;;;;5019194;28;20080;-89
2023/12/30 08:01:57;;;;;;;3.58;3.00;;;4.50;99.90;;;;;;5018699;28;20401;-89
2023/12/30 08:04:26;;;;;;;4.45;3.20;;;;;;;;;;5019327;28;20050;-89
2023/12/30 08:07:02;;;;;;;4.63;2.35;;;4.60;99.90;;;;;;5001722;28;20088;-89
2023/12/30 08:09:31;;;;;;;4.10;2.85;;;;;;;;;;5020486;28;20045;-91
2023/12/30 08:12:00;;;;;;;5.00;2.85;;;;;;;;;;5019179;28;20052;-88
2023/12/30 08:14:29;;;;;;;5.60;3.25;;;;;;;;;;5002016;28;20063;-88
2023/12/30 08:16:54;;;;;;;10.32;3.33;;;4.60;99.90;;;;;;5016688;28;20139;-87
2023/12/30 08:19:30;;;;;;;;;;;;;;;;;;;;;
2023/12/30 08:22:05;;;;;;;9.15;3.20;;;5.60;99.90;;;;;;5034382;28;20060;-88
2023/12/30 08:24:33;;;;;;;6.47;3.50;;;4.50;99.90;;;;;;5019395;28;20049;-91
2023/12/30 08:27:05;;;;;;;6.32;4.10;;;4.90;99.90;;;;;;5017865;28;20053;-90
2023/12/30 08:29:34;;;;;;;4.93;3.25;;;4.70;99.90;;;;;;5033126;28;20052;-90
2023/12/30 08:31:59;;;;;;;6.18;3.15;;;4.50;99.90;;;;;;5032963;28;20128;-87
2023/12/30 08:34:27;;;;;;;7.18;3.33;;;5.30;99.90;;;;;;5032473;28;20077;-89
2023/12/30 08:36:56;;;;;;;5.03;3.20;;;4.50;99.90;;;;;;5000125;28;20045;-89
2023/12/30 08:39:21;;;;;;;3.97;3.15;;;4.60;99.90;;;;;;5016643;28;20053;-88
2023/12/30 08:41:47;;;;;;;6.68;3.67;;;4.70;99.90;;;;;;5000948;28;20049;-89
2023/12/30 08:44:16;;;;;;;7.65;4.22;;;4.70;99.90;;;;;;5033410;28;20084;-91
2023/12/30 08:46:42;;;;;;;3.67;3.38;;;4.70;99.90;;;;;;5016270;28;20057;-87
2023/12/30 08:49:10;;;;;;;4.82;3.15;;;4.80;99.90;;;;;;5016747;28;20396;-90
2023/12/30 08:51:36;;;;;;;4.85;3.20;;;4.90;99.90;;;;;;5032739;28;20049;-87
2023/12/30 08:54:02;;;;;;;4.40;3.13;;;4.90;99.90;;;;;;5032991;28;20180;-78
2023/12/30 08:56:32;;;;;;;4.95;3.45;;;4.90;99.90;;;;;;5032566;28;20045;-79
2023/12/30 08:58:58;;;;;;;5.68;3.40;;;4.90;99.90;;;;;;5032676;28;20505;-79
2023/12/30 09:01:23;;;;;;;7.15;3.45;;;4.90;99.90;;;;;;5016267;28;20111;-79
2023/12/30 09:03:49;;;;;;;7.32;3.80;;;4.90;99.90;;;;;;5034563;28;20496;-79
2023/12/30 09:06:15;;;;;;;8.05;3.95;;;5.00;99.90;;;;;;5035776;28;20037;-79
2023/12/30 09:08:41;;;;;;;5.65;3.97;;;5.10;99.90;;;;;;5035575;28;20508;-79
2023/12/30 09:11:20;;;;;;;4.50;4.00;;;5.20;99.90;;;;;;5036496;28;20091;-76
2023/12/30 09:13:47;;;;;;;8.57;4.43;;;5.30;99.90;;;;;;5035830;28;20061;-77
2023/12/30 09:16:13;;;;;;;6.60;3.80;;;5.30;99.90;;;;;;5036986;28;20042;-80
2023/12/30 09:18:38;;;;;;;11.27;4.15;;;5.40;99.90;;;;;;5036348;28;20138;-76
2023/12/30 09:21:04;;;;;;;6.18;4.60;;;5.30;99.90;;;;;;5018716;28;20046;-76
2023/12/30 09:23:29;;;;;;;6.60;4.80;;;5.30;99.90;;;;;;5035704;28;20084;-78
2023/12/30 09:25:55;;;;;;;10.68;4.82;;;5.50;99.90;;;;;;5036269;28;20056;-77
2023/12/30 09:28:21;;;;;;;7.88;5.20;;;5.40;99.90;;;;;;5035016;28;20103;-79
2023/12/30 09:30:46;;;;;;;6.28;5.25;;;5.30;99.90;;;;;;5035768;28;20050;-78
2023/12/30 09:33:12;;;;;;;8.70;5.13;;;5.40;99.90;;;;;;5035923;28;20054;-79
2023/12/30 09:35:38;;;;;;;7.45;5.03;;;5.40;99.90;;;;;;5036034;28;20038;-77
2023/12/30 09:38:04;;;;;;;6.78;5.28;;;5.40;99.90;;;;;;5036747;28;20053;-78
2023/12/30 09:40:29;;;;;;;9.32;4.85;;;5.40;99.90;;;;;;5035020;28;20049;-77
2023/12/30 09:43:01;;;;;;;8.35;5.07;;;5.50;99.90;;;;;;5034385;28;20053;-76
2023/12/30 09:45:27;;;;;;;7.90;4.93;;;5.50;99.90;;;;;;5035478;28;20064;-77
2023/12/30 09:47:54;;;;;;;9.95;4.60;;;5.60;99.90;;;;;;5035408;28;20132;-77
2023/12/30 09:50:20;;;;;;;7.82;5.40;;;5.60;99.90;;;;;;5034642;28;20441;-76
2023/12/30 09:52:45;;;;;;;6.28;4.63;;;5.80;99.90;;;;;;5035604;28;20050;-78
2023/12/30 09:55:11;;;;;;;7.95;5.07;;;5.70;99.90;;;;;;5034727;28;20041;-78
2023/12/30 09:57:37;;;;;;;9.25;5.07;;;5.90;99.90;;;;;;5034740;28;20081;-77
2023/12/30 10:00:05;;;;;;;9.27;5.30;;;5.80;99.90;;;;;;5034671;28;20049;-77
2023/12/30 10:02:32;;;;;;;9.13;4.25;;;5.90;99.90;;;;;;5018588;28;20053;-77
2023/12/30 10:04:59;;;;;;;9.40;5.10;;;5.90;99.90;;;;;;5036281;28;20409;-78
2023/12/30 10:07:25;;;;;;;8.80;5.40;;;6.00;99.90;;;;;;5034573;28;20049;-77
2023/12/30 10:09:51;;;;;;;10.90;5.63;;;6.00;99.90;;;;;;5035292;28;20136;-77
2023/12/30 10:12:18;;;;;;;9.82;5.68;;;6.10;99.90;;;;;;5034539;28;20482;-77
2023/12/30 10:14:44;;;;;;;6.57;5.43;;;6.20;99.90;;;;;;5033385;28;20132;-77
2023/12/30 10:17:09;;;;;;;10.07;5.35;;;6.20;99.90;;;;;;5034842;28;20128;-77
2023/12/30 10:19:36;;;;;;;7.00;5.47;;;6.30;99.90;;;;;;5035038;28;20084;-77
2023/12/30 10:22:02;;;;;;;11.10;5.90;;;6.30;99.90;;;;;;5035314;28;20053;-77
2023/12/30 10:24:28;;;;;;;8.77;6.13;;;6.40;99.90;;;;;;5035202;28;20057;-76
2023/12/30 10:26:53;;;;;;;10.57;5.65;;;6.60;99.90;;;;;;5035776;28;20052;-78
2023/12/30 10:29:19;;;;;;;8.23;5.22;;;6.70;99.90;;;;;;5034242;28;20042;-77
2023/12/30 10:32:01;;;;;;;9.13;4.93;;;6.80;99.90;;;;;;5035092;28;20382;-77
2023/12/30 10:34:27;;;;;;;6.75;4.75;;;7.00;99.90;;;;;;5033837;28;20050;-76
2023/12/30 10:36:55;;;;;;;5.57;4.95;;;7.00;99.90;;;;;;5034509;28;20057;-77
2023/12/30 10:39:22;;;;;;;11.02;4.57;;;7.10;99.90;;;;;;5035081;28;20059;-77
2023/12/30 10:41:48;;;;;;;7.80;4.57;;;7.30;99.90;;;;;;5034070;28;20045;-76
2023/12/30 10:44:14;;;;;;;10.00;4.10;;;7.50;99.90;;;;;;5033904;28;20048;-78
2023/12/30 10:46:45;;;;;;;6.20;3.30;;;7.60;99.90;;;;;;5035203;28;20147;-76
2023/12/30 10:49:14;;;;;;;4.97;3.50;;;7.60;99.90;;;;;;5034924;28;20041;-76
2023/12/30 10:51:40;;;;;;;6.07;3.72;;;7.70;99.90;;;;;;5034590;28;20045;-77
2023/12/30 10:54:07;;;;;;;6.47;3.20;;;7.70;99.90;;;;;;5033609;28;20103;-77
2023/12/30 10:56:57;;;;;;;5.97;3.22;;;7.70;99.90;;;;;;5034580;28;20045;-77
2023/12/30 10:59:24;;;;;;;6.38;3.13;;;7.50;99.90;;;;;;5034308;28;20089;-76
2023/12/30 11:01:50;;;;;;;5.63;3.33;;;7.40;99.90;;;;;;5034483;28;20050;-77
2023/12/30 11:04:16;;;;;;;6.82;3.30;;;7.40;99.90;;;;;;5033494;28;20053;-77
2023/12/30 11:06:59;;;;;;;5.03;3.10;;;7.40;99.90;;;;;;5034485;28;20045;-77
2023/12/30 11:09:29;;;;;;;6.63;3.10;;;7.30;99.90;;;;;;5034296;28;20430;-77
2023/12/30 11:12:01;;;;;;;6.95;3.22;;;7.20;99.90;;;;;;5034079;28;20053;-77
2023/12/30 11:14:27;;;;;;;5.90;3.97;;;7.10;99.90;;;;;;5034258;28;20042;-78
2023/12/30 11:16:55;;;;;;;6.60;3.75;;;7.10;99.90;;;;;;5033659;28;20052;-77
2023/12/30 11:19:29;;;;;;;3.60;3.20;;;7.00;99.90;;;;;;5033376;28;20046;-79
2023/12/30 11:22:04;;;;;;;4.55;3.38;;;7.00;99.90;;;;;;5034876;28;20483;-77
2023/12/30 11:24:30;;;;;;;8.67;4.10;;;6.90;99.90;;;;;;5033111;28;20046;-77
2023/12/30 11:26:56;;;;;;;5.25;3.85;;;6.90;99.90;;;;;;5016322;28;20393;-77
2023/12/30 11:29:27;;;;;;;8.52;4.00;;;7.00;99.90;;;;;;5032936;28;20056;-76
2023/12/30 11:31:56;;;;;;;7.07;4.07;;;7.10;99.90;;;;;;5033946;28;20041;-77
2023/12/30 11:34:24;;;;;;;7.45;3.63;;;7.30;99.90;;;;;;5033242;28;20052;-77
2023/12/30 11:36:51;;;;;;;5.53;3.88;;;7.30;99.90;;;;;;5032336;28;20046;-77
2023/12/30 11:39:25;;;;;;;6.18;4.25;;;7.40;99.90;;;;;;5032609;28;20056;-77
2023/12/30 11:41:53;;;;;;;5.57;3.17;;;7.50;99.90;;;;;;5034387;28;20454;-78
2023/12/30 11:44:19;;;;;;;10.20;3.60;;;7.50;99.90;;;;;;5033584;28;20390;-77
2023/12/30 11:46:46;;;;;;;7.43;3.92;;;7.60;99.90;;;;;;5034201;28;20053;-77
2023/12/30 11:49:24;;;;;;;6.60;3.55;;;7.60;99.90;;;;;;5033485;28;20092;-78
2023/12/30 11:51:50;;;;;;;4.20;3.40;;;7.60;99.90;;;;;;5033554;28;20382;-77
2023/12/30 11:54:16;;;;;;;4.85;3.63;;;7.60;99.90;;;;;;5033630;28;20041;-77
2023/12/30 11:56:42;;;;;;;9.93;4.18;;;7.60;99.90;;;;;;5032387;28;20049;-77
2023/12/30 11:59:08;;;;;;;9.30;4.88;;;7.60;99.90;;;;;;5032572;28;20050;-77
2023/12/30 12:01:34;;;;;;;12.60;3.75;;;7.60;99.90;;;;;;5016146;28;20090;-78
2023/12/30 12:04:00;;;;;;;5.68;4.05;;;7.60;99.90;;;;;;5032856;28;20132;-77
2023/12/30 12:06:26;;;;;;;6.95;3.78;;;7.50;99.90;;;;;;5033538;28;20466;-77
2023/12/30 12:08:51;;;;;;;5.28;3.78;;;7.50;99.90;;;;;;5033446;28;20393;-78
2023/12/30 12:11:17;;;;;;;5.03;3.95;;;7.50;99.90;;;;;;5033465;28;20049;-77
2023/12/30 12:13:43;;;;;;;8.52;3.60;;;7.50;99.90;;;;;;5034073;28;20171;-79
2023/12/30 12:16:09;;;;;;;7.13;4.30;;;7.50;99.90;;;;;;5033289;28;20068;-79
2023/12/30 12:18:35;;;;;;;6.78;4.15;;;7.50;99.90;;;;;;5015970;28;20057;-76
2023/12/30 12:21:03;;;;;;;7.88;4.63;;;7.50;99.90;;;;;;5032328;28;20045;-77
2023/12/30 12:23:30;;;;;;;5.53;3.97;;;7.60;99.90;;;;;;5032318;28;20421;-78
2023/12/30 12:25:57;;;;;;;6.40;3.92;;;7.70;99.90;;;;;;5032329;28;20057;-78
2023/12/30 12:28:23;;;;;;;4.55;3.45;;;7.70;99.90;;;;;;5032969;28;20528;-78
2023/12/30 12:30:50;;;;;;;5.60;4.00;;;7.70;99.90;;;;;;5033363;28;20089;-79
2023/12/30 12:33:19;;;;;;;8.18;3.53;;;7.70;99.90;;;;;;5033005;28;20506;-78
2023/12/30 12:35:45;;;;;;;9.95;4.85;;;7.70;99.90;;;;;;5032944;28;20389;-78
2023/12/30 12:38:11;;;;;;;8.73;4.78;;;7.60;99.90;;;;;;5017122;28;20136;-78
2023/12/30 12:40:38;;;;;;;5.88;4.38;;;7.60;99.90;;;;;;5036004;28;20084;-78
2023/12/30 12:43:04;;;;;;;12.45;5.00;;;7.60;99.90;;;;;;5019464;28;20050;-77
2023/12/30 12:45:29;;;;;;;6.13;4.57;;;7.60;99.90;;;;;;5035827;28;20110;-77
2023/12/30 12:47:55;;;;;;;7.07;4.50;;;7.60;99.90;;;;;;5037041;28;20053;-77
2023/12/30 12:50:21;;;;;;;6.38;4.30;;;7.60;99.90;;;;;;5020225;28;20460;-75
2023/12/30 12:52:47;;;;;;;7.88;4.57;;;7.60;99.90;;;;;;5019582;28;20052;-77
2023/12/30 12:55:12;;;;;;;8.80;4.38;;;7.60;99.90;;;;;;5020184;28;20049;-75
2023/12/30 12:57:38;;;;;;;7.05;4.65;;;7.60;99.90;;;;;;5036868;28;20482;-76